TimeCST,TemperatureF,Dew PointF,Humidity,Sea Level PressureIn,VisibilityMPH,Wind Direction,Wind SpeedMPH,Gust SpeedMPH,PrecipitationIn,Events,Conditions,WindDirDegrees,DateUTC
12:18 AM,24.8,24.8,100,30.21,1.0,East,3.5,-,N/A,,Mist,100,2013-02-08 06:18:00
12:53 AM,24.1,23.0,96,30.27,0.5,SSE,5.8,-,N/A,Fog,Light Freezing Fog,150,2013-02-08 06:53:00
1:53 AM,24.1,23.0,96,30.26,0.2,SSE,3.5,-,N/A,Fog,Light Freezing Fog,150,2013-02-08 07:53:00
2:53 AM,24.1,23.0,96,30.27,0.2,SSE,5.8,-,N/A,Fog,Light Freezing Fog,160,2013-02-08 08:53:00
3:53 AM,24.1,21.9,91,30.25,0.2,SSE,8.1,-,N/A,Fog,Light Freezing Fog,160,2013-02-08 09:53:00
4:53 AM,24.1,23.0,96,30.25,0.2,SSE,8.1,-,N/A,Fog,Light Freezing Fog,160,2013-02-08 10:53:00
5:53 AM,23.0,21.9,96,30.27,0.5,SSE,6.9,-,N/A,Fog,Light Freezing Fog,150,2013-02-08 11:53:00
6:53 AM,23.0,21.9,96,30.27,0.8,SSE,6.9,-,N/A,,Overcast,150,2013-02-08 12:53:00
7:11 AM,23.0,21.2,93,30.19,1.0,SSE,8.1,-,N/A,,Overcast,150,2013-02-08 13:11:00
7:23 AM,23.0,21.2,93,30.18,0.8,SSE,9.2,-,N/A,,Overcast,150,2013-02-08 13:23:00
7:53 AM,23.0,21.9,96,30.27,0.5,SSE,9.2,-,N/A,Fog,Light Freezing Fog,150,2013-02-08 13:53:00
8:53 AM,24.1,23.0,96,30.27,0.2,SSE,13.8,-,N/A,Fog,Light Freezing Fog,150,2013-02-08 14:53:00
9:48 AM,24.8,24.8,100,30.20,1.0,SSE,8.1,-,N/A,,Overcast,160,2013-02-08 15:48:00
9:53 AM,25.0,24.1,96,30.29,0.8,SSE,11.5,-,N/A,,Overcast,160,2013-02-08 15:53:00
10:08 AM,26.6,24.8,93,30.19,1.2,SSE,8.1,-,N/A,,Overcast,160,2013-02-08 16:08:00
10:34 AM,26.6,26.6,100,30.18,2.5,SE,11.5,-,N/A,,Overcast,140,2013-02-08 16:34:00
10:43 AM,26.6,26.6,100,30.19,3.0,SSE,12.7,-,N/A,,Overcast,160,2013-02-08 16:43:00
10:53 AM,27.0,26.1,96,30.27,5.0,SSE,10.4,-,N/A,,Overcast,150,2013-02-08 16:53:00
11:45 AM,28.4,26.6,93,30.17,7.0,SSE,15.0,-,N/A,,Overcast,160,2013-02-08 17:45:00
11:53 AM,28.9,28.0,96,30.24,7.0,SE,13.8,19.6,N/A,,Overcast,140,2013-02-08 17:53:00
12:53 PM,30.9,27.0,85,30.19,10.0,SE,15.0,-,N/A,,Mostly Cloudy,140,2013-02-08 18:53:00
1:04 PM,30.2,26.6,86,30.10,10.0,SE,13.8,23.0,N/A,,Mostly Cloudy,140,2013-02-08 19:04:00
1:15 PM,32.0,28.4,87,30.10,10.0,SE,18.4,24.2,N/A,,Scattered Clouds,140,2013-02-08 19:15:00
1:53 PM,37.9,28.0,68,30.14,10.0,SSE,18.4,25.3,N/A,,Clear,150,2013-02-08 19:53:00
2:53 PM,39.0,27.0,62,30.10,10.0,South,21.9,29.9,N/A,,Clear,170,2013-02-08 20:53:00
3:53 PM,39.0,27.0,62,30.07,10.0,SSE,18.4,29.9,N/A,,Clear,150,2013-02-08 21:53:00
4:53 PM,37.9,27.0,65,30.07,10.0,SSE,12.7,24.2,N/A,,Clear,150,2013-02-08 22:53:00
5:53 PM,36.0,26.1,67,30.06,10.0,SE,13.8,-,N/A,,Clear,140,2013-02-08 23:53:00
6:53 PM,32.0,26.1,79,30.06,10.0,SE,12.7,19.6,N/A,,Clear,140,2013-02-09 00:53:00
7:53 PM,30.9,26.1,82,30.05,10.0,SSE,11.5,17.3,N/A,,Clear,150,2013-02-09 01:53:00
8:53 PM,30.0,25.0,82,30.06,10.0,SSE,10.4,-,N/A,,Clear,160,2013-02-09 02:53:00
9:53 PM,28.9,25.0,85,30.06,10.0,SE,10.4,-,N/A,,Clear,140,2013-02-09 03:53:00
10:53 PM,28.0,24.1,85,30.04,10.0,SE,6.9,-,N/A,,Clear,140,2013-02-09 04:53:00
11:53 PM,28.9,25.0,85,30.02,8.0,SSE,10.4,-,N/A,,Clear,150,2013-02-09 05:53:00